sensor_id;sensor_type;location;lat;lon;timestamp;P1;durP1;ratioP1;P2;durP2;ratioP2
479;SDS011;226;48.606;9.096;2023-07-08T00:02:15;7.70;;;4.20;;
479;SDS011;226;48.606;9.096;2023-07-08T00:04:44;8.70;;;4.13;;
479;SDS011;226;48.606;9.096;2023-07-08T00:07:12;11.17;;;4.30;;
479;SDS011;226;48.606;9.096;2023-07-08T00:09:44;8.53;;;4.63;;
479;SDS011;226;48.606;9.096;2023-07-08T00:12:14;8.17;;;4.30;;
479;SDS011;226;48.606;9.096;2023-07-08T00:14:42;11.33;;;4.47;;
479;SDS011;226;48.606;9.096;2023-07-08T00:17:12;6.30;;;3.70;;
479;SDS011;226;48.606;9.096;2023-07-08T00:19:40;11.83;;;4.17;;
479;SDS011;226;48.606;9.096;2023-07-08T00:22:12;10.63;;;4.43;;
479;SDS011;226;48.606;9.096;2023-07-08T00:24:41;8.60;;;5.37;;
479;SDS011;226;48.606;9.096;2023-07-08T00:27:10;11.43;;;4.47;;
479;SDS011;226;48.606;9.096;2023-07-08T00:29:41;10.87;;;5.37;;
479;SDS011;226;48.606;9.096;2023-07-08T00:32:10;19.17;;;5.00;;
479;SDS011;226;48.606;9.096;2023-07-08T00:34:39;11.47;;;5.00;;
479;SDS011;226;48.606;9.096;2023-07-08T00:37:09;9.70;;;4.73;;
479;SDS011;226;48.606;9.096;2023-07-08T00:39:38;7.63;;;4.03;;
479;SDS011;226;48.606;9.096;2023-07-08T00:42:10;10.00;;;4.87;;
479;SDS011;226;48.606;9.096;2023-07-08T00:44:41;8.80;;;4.40;;
479;SDS011;226;48.606;9.096;2023-07-08T00:47:11;14.13;;;4.60;;
479;SDS011;226;48.606;9.096;2023-07-08T00:49:41;9.87;;;4.00;;
479;SDS011;226;48.606;9.096;2023-07-08T00:52:17;8.03;;;4.30;;
479;SDS011;226;48.606;9.096;2023-07-08T00:54:48;15.37;;;5.00;;
479;SDS011;226;48.606;9.096;2023-07-08T00:57:17;10.10;;;4.63;;
479;SDS011;226;48.606;9.096;2023-07-08T00:59:47;12.03;;;4.10;;
479;SDS011;226;48.606;9.096;2023-07-08T01:02:18;6.93;;;3.93;;
479;SDS011;226;48.606;9.096;2023-07-08T01:04:49;12.20;;;4.10;;
479;SDS011;226;48.606;9.096;2023-07-08T01:07:18;11.83;;;4.73;;
479;SDS011;226;48.606;9.096;2023-07-08T01:09:50;7.23;;;3.80;;
479;SDS011;226;48.606;9.096;2023-07-08T01:12:21;6.63;;;3.50;;
479;SDS011;226;48.606;9.096;2023-07-08T01:14:51;8.50;;;3.93;;
479;SDS011;226;48.606;9.096;2023-07-08T01:17:21;15.40;;;5.80;;
479;SDS011;226;48.606;9.096;2023-07-08T01:19:49;7.93;;;4.10;;
479;SDS011;226;48.606;9.096;2023-07-08T01:22:23;12.90;;;4.50;;
479;SDS011;226;48.606;9.096;2023-07-08T01:24:51;17.67;;;4.37;;
479;SDS011;226;48.606;9.096;2023-07-08T01:27:20;8.20;;;3.90;;
479;SDS011;226;48.606;9.096;2023-07-08T01:29:48;8.87;;;4.47;;
479;SDS011;226;48.606;9.096;2023-07-08T01:32:16;10.33;;;4.20;;
479;SDS011;226;48.606;9.096;2023-07-08T01:34:45;8.77;;;4.00;;
479;SDS011;226;48.606;9.096;2023-07-08T01:37:29;8.97;;;4.57;;
479;SDS011;226;48.606;9.096;2023-07-08T01:40:13;12.70;;;5.10;;
479;SDS011;226;48.606;9.096;2023-07-08T01:42:42;5.73;;;3.70;;
479;SDS011;226;48.606;9.096;2023-07-08T01:45:10;12.83;;;3.90;;
479;SDS011;226;48.606;9.096;2023-07-08T01:47:39;10.33;;;3.80;;
479;SDS011;226;48.606;9.096;2023-07-08T01:50:09;10.93;;;4.33;;
479;SDS011;226;48.606;9.096;2023-07-08T01:52:40;10.00;;;4.53;;
479;SDS011;226;48.606;9.096;2023-07-08T01:55:08;9.10;;;4.43;;
479;SDS011;226;48.606;9.096;2023-07-08T01:57:37;8.60;;;5.13;;
479;SDS011;226;48.606;9.096;2023-07-08T02:00:05;7.47;;;3.97;;
479;SDS011;226;48.606;9.096;2023-07-08T02:02:34;13.20;;;4.93;;
479;SDS011;226;48.606;9.096;2023-07-08T02:05:03;6.30;;;4.53;;
479;SDS011;226;48.606;9.096;2023-07-08T02:07:32;9.23;;;5.00;;
479;SDS011;226;48.606;9.096;2023-07-08T02:10:01;9.07;;;4.27;;
479;SDS011;226;48.606;9.096;2023-07-08T02:12:30;9.47;;;4.10;;
479;SDS011;226;48.606;9.096;2023-07-08T02:14:59;12.80;;;4.60;;
479;SDS011;226;48.606;9.096;2023-07-08T02:17:27;7.67;;;4.80;;
479;SDS011;226;48.606;9.096;2023-07-08T02:19:56;10.90;;;5.23;;
479;SDS011;226;48.606;9.096;2023-07-08T02:22:24;8.43;;;4.10;;
479;SDS011;226;48.606;9.096;2023-07-08T02:24:53;15.17;;;5.43;;
479;SDS011;226;48.606;9.096;2023-07-08T02:27:22;10.50;;;4.27;;
479;SDS011;226;48.606;9.096;2023-07-08T02:29:51;12.23;;;5.57;;
479;SDS011;226;48.606;9.096;2023-07-08T02:32:19;9.97;;;4.97;;
479;SDS011;226;48.606;9.096;2023-07-08T02:34:48;6.30;;;3.70;;
479;SDS011;226;48.606;9.096;2023-07-08T02:37:18;10.97;;;5.00;;
479;SDS011;226;48.606;9.096;2023-07-08T02:39:46;8.33;;;4.23;;
479;SDS011;226;48.606;9.096;2023-07-08T02:42:15;9.70;;;4.00;;
479;SDS011;226;48.606;9.096;2023-07-08T02:44:45;11.03;;;5.00;;
479;SDS011;226;48.606;9.096;2023-07-08T02:47:13;10.00;;;4.57;;
479;SDS011;226;48.606;9.096;2023-07-08T02:49:41;9.53;;;4.30;;
479;SDS011;226;48.606;9.096;2023-07-08T02:52:09;11.20;;;5.67;;
479;SDS011;226;48.606;9.096;2023-07-08T02:54:38;11.47;;;5.23;;
479;SDS011;226;48.606;9.096;2023-07-08T02:57:06;7.23;;;3.77;;
479;SDS011;226;48.606;9.096;2023-07-08T02:59:34;11.47;;;4.93;;
479;SDS011;226;48.606;9.096;2023-07-08T03:02:03;10.43;;;4.37;;
479;SDS011;226;48.606;9.096;2023-07-08T03:04:31;7.47;;;4.77;;
479;SDS011;226;48.606;9.096;2023-07-08T03:07:01;11.80;;;5.10;;
479;SDS011;226;48.606;9.096;2023-07-08T03:09:30;8.10;;;4.33;;
479;SDS011;226;48.606;9.096;2023-07-08T03:11:58;10.37;;;3.90;;
479;SDS011;226;48.606;9.096;2023-07-08T03:14:27;19.33;;;5.97;;
479;SDS011;226;48.606;9.096;2023-07-08T03:16:55;11.40;;;4.47;;
479;SDS011;226;48.606;9.096;2023-07-08T03:19:24;13.27;;;3.63;;
479;SDS011;226;48.606;9.096;2023-07-08T03:21:52;13.70;;;4.67;;
479;SDS011;226;48.606;9.096;2023-07-08T03:24:21;9.17;;;3.97;;
479;SDS011;226;48.606;9.096;2023-07-08T03:26:49;7.30;;;4.17;;
479;SDS011;226;48.606;9.096;2023-07-08T03:29:20;9.17;;;4.63;;
479;SDS011;226;48.606;9.096;2023-07-08T03:31:48;9.70;;;5.07;;
479;SDS011;226;48.606;9.096;2023-07-08T03:34:17;11.57;;;5.10;;
479;SDS011;226;48.606;9.096;2023-07-08T03:36:47;10.77;;;4.87;;
479;SDS011;226;48.606;9.096;2023-07-08T03:39:20;10.30;;;5.10;;
479;SDS011;226;48.606;9.096;2023-07-08T03:41:51;5.23;;;3.90;;
479;SDS011;226;48.606;9.096;2023-07-08T03:44:20;10.10;;;4.30;;
479;SDS011;226;48.606;9.096;2023-07-08T03:46:48;10.37;;;4.67;;
479;SDS011;226;48.606;9.096;2023-07-08T03:49:17;10.53;;;4.27;;
479;SDS011;226;48.606;9.096;2023-07-08T03:51:50;9.47;;;4.10;;
479;SDS011;226;48.606;9.096;2023-07-08T03:54:20;9.90;;;4.53;;
479;SDS011;226;48.606;9.096;2023-07-08T03:56:49;12.43;;;4.73;;
479;SDS011;226;48.606;9.096;2023-07-08T03:59:18;9.90;;;4.10;;
479;SDS011;226;48.606;9.096;2023-07-08T04:01:46;10.53;;;4.20;;
479;SDS011;226;48.606;9.096;2023-07-08T04:04:15;7.73;;;3.90;;
479;SDS011;226;48.606;9.096;2023-07-08T04:06:43;8.67;;;5.70;;
479;SDS011;226;48.606;9.096;2023-07-08T04:09:13;9.37;;;5.20;;
479;SDS011;226;48.606;9.096;2023-07-08T04:11:42;8.07;;;4.37;;
479;SDS011;226;48.606;9.096;2023-07-08T04:14:10;9.07;;;4.87;;
479;SDS011;226;48.606;9.096;2023-07-08T04:16:42;8.13;;;4.97;;
479;SDS011;226;48.606;9.096;2023-07-08T04:19:15;13.07;;;4.67;;
479;SDS011;226;48.606;9.096;2023-07-08T04:21:43;6.07;;;4.00;;
479;SDS011;226;48.606;9.096;2023-07-08T04:24:14;11.20;;;4.70;;
479;SDS011;226;48.606;9.096;2023-07-08T04:26:44;10.70;;;4.93;;
479;SDS011;226;48.606;9.096;2023-07-08T04:29:16;11.73;;;5.73;;
479;SDS011;226;48.606;9.096;2023-07-08T04:31:46;10.63;;;4.63;;
479;SDS011;226;48.606;9.096;2023-07-08T04:34:14;13.70;;;4.67;;
479;SDS011;226;48.606;9.096;2023-07-08T04:36:43;8.90;;;4.37;;
479;SDS011;226;48.606;9.096;2023-07-08T04:39:12;9.47;;;4.80;;
479;SDS011;226;48.606;9.096;2023-07-08T04:41:42;7.40;;;4.20;;
479;SDS011;226;48.606;9.096;2023-07-08T04:44:10;13.63;;;4.80;;
479;SDS011;226;48.606;9.096;2023-07-08T04:46:39;8.67;;;4.87;;
479;SDS011;226;48.606;9.096;2023-07-08T04:49:10;11.50;;;5.27;;
479;SDS011;226;48.606;9.096;2023-07-08T04:51:40;9.33;;;4.63;;
479;SDS011;226;48.606;9.096;2023-07-08T04:54:08;8.53;;;6.37;;
479;SDS011;226;48.606;9.096;2023-07-08T04:56:39;10.93;;;4.80;;
479;SDS011;226;48.606;9.096;2023-07-08T04:59:08;9.87;;;5.03;;
479;SDS011;226;48.606;9.096;2023-07-08T05:01:37;11.10;;;5.67;;
479;SDS011;226;48.606;9.096;2023-07-08T05:04:05;14.13;;;5.33;;
479;SDS011;226;48.606;9.096;2023-07-08T05:06:37;13.80;;;5.37;;
479;SDS011;226;48.606;9.096;2023-07-08T05:09:05;12.57;;;5.53;;
479;SDS011;226;48.606;9.096;2023-07-08T05:11:34;9.93;;;4.67;;
479;SDS011;226;48.606;9.096;2023-07-08T05:14:04;9.57;;;5.23;;
479;SDS011;226;48.606;9.096;2023-07-08T05:16:34;13.97;;;5.30;;
479;SDS011;226;48.606;9.096;2023-07-08T05:19:02;10.20;;;4.60;;
479;SDS011;226;48.606;9.096;2023-07-08T05:21:31;13.53;;;5.10;;
479;SDS011;226;48.606;9.096;2023-07-08T05:24:00;16.23;;;5.10;;
479;SDS011;226;48.606;9.096;2023-07-08T05:26:28;8.73;;;4.50;;
479;SDS011;226;48.606;9.096;2023-07-08T05:28:56;14.13;;;5.40;;
479;SDS011;226;48.606;9.096;2023-07-08T05:31:26;10.73;;;5.17;;
479;SDS011;226;48.606;9.096;2023-07-08T05:34:12;14.03;;;4.97;;
479;SDS011;226;48.606;9.096;2023-07-08T05:36:41;8.20;;;4.30;;
479;SDS011;226;48.606;9.096;2023-07-08T05:39:09;16.83;;;6.10;;
479;SDS011;226;48.606;9.096;2023-07-08T05:41:37;12.57;;;5.07;;
479;SDS011;226;48.606;9.096;2023-07-08T05:44:05;11.03;;;4.63;;
479;SDS011;226;48.606;9.096;2023-07-08T05:46:35;12.50;;;5.13;;
479;SDS011;226;48.606;9.096;2023-07-08T05:49:03;8.10;;;4.80;;
479;SDS011;226;48.606;9.096;2023-07-08T05:51:31;17.60;;;6.03;;
479;SDS011;226;48.606;9.096;2023-07-08T05:54:00;10.87;;;6.10;;
479;SDS011;226;48.606;9.096;2023-07-08T05:56:29;14.43;;;5.20;;
479;SDS011;226;48.606;9.096;2023-07-08T05:58:57;11.03;;;5.13;;
479;SDS011;226;48.606;9.096;2023-07-08T06:01:26;10.43;;;4.87;;
479;SDS011;226;48.606;9.096;2023-07-08T06:03:55;10.43;;;5.47;;
479;SDS011;226;48.606;9.096;2023-07-08T06:06:26;12.90;;;5.67;;
479;SDS011;226;48.606;9.096;2023-07-08T06:08:55;13.30;;;5.43;;
479;SDS011;226;48.606;9.096;2023-07-08T06:11:23;9.87;;;4.90;;
479;SDS011;226;48.606;9.096;2023-07-08T06:13:52;8.63;;;5.00;;
479;SDS011;226;48.606;9.096;2023-07-08T06:16:20;15.17;;;5.97;;
479;SDS011;226;48.606;9.096;2023-07-08T06:19:07;9.50;;;4.93;;
479;SDS011;226;48.606;9.096;2023-07-08T06:21:36;10.77;;;4.23;;
479;SDS011;226;48.606;9.096;2023-07-08T06:24:04;8.20;;;4.40;;
479;SDS011;226;48.606;9.096;2023-07-08T06:26:33;14.33;;;4.10;;
479;SDS011;226;48.606;9.096;2023-07-08T06:29:01;7.73;;;4.60;;
479;SDS011;226;48.606;9.096;2023-07-08T06:31:29;7.90;;;4.27;;
479;SDS011;226;48.606;9.096;2023-07-08T06:33:57;8.70;;;3.90;;
479;SDS011;226;48.606;9.096;2023-07-08T06:36:27;8.90;;;4.67;;
479;SDS011;226;48.606;9.096;2023-07-08T06:38:55;17.30;;;7.00;;
479;SDS011;226;48.606;9.096;2023-07-08T06:41:23;10.17;;;4.20;;
479;SDS011;226;48.606;9.096;2023-07-08T06:43:51;9.90;;;4.57;;
479;SDS011;226;48.606;9.096;2023-07-08T06:46:20;7.63;;;4.10;;
479;SDS011;226;48.606;9.096;2023-07-08T06:48:50;7.93;;;4.30;;
479;SDS011;226;48.606;9.096;2023-07-08T06:51:19;10.37;;;4.53;;
479;SDS011;226;48.606;9.096;2023-07-08T06:53:49;10.40;;;4.73;;
479;SDS011;226;48.606;9.096;2023-07-08T06:56:17;10.03;;;4.83;;
479;SDS011;226;48.606;9.096;2023-07-08T06:58:45;6.37;;;4.10;;
479;SDS011;226;48.606;9.096;2023-07-08T07:01:13;12.90;;;4.57;;
479;SDS011;226;48.606;9.096;2023-07-08T07:03:42;7.40;;;3.77;;
479;SDS011;226;48.606;9.096;2023-07-08T07:06:19;11.13;;;3.83;;
479;SDS011;226;48.606;9.096;2023-07-08T07:08:47;9.23;;;4.27;;
479;SDS011;226;48.606;9.096;2023-07-08T07:11:16;19.70;;;5.50;;
479;SDS011;226;48.606;9.096;2023-07-08T07:13:45;7.17;;;4.93;;
479;SDS011;226;48.606;9.096;2023-07-08T07:16:13;9.17;;;3.77;;
479;SDS011;226;48.606;9.096;2023-07-08T07:18:41;8.40;;;3.67;;
479;SDS011;226;48.606;9.096;2023-07-08T07:21:11;7.83;;;4.80;;
479;SDS011;226;48.606;9.096;2023-07-08T07:23:40;10.03;;;5.00;;
479;SDS011;226;48.606;9.096;2023-07-08T07:26:08;7.73;;;4.13;;
479;SDS011;226;48.606;9.096;2023-07-08T07:28:36;7.63;;;4.20;;
479;SDS011;226;48.606;9.096;2023-07-08T07:31:04;6.70;;;3.50;;
479;SDS011;226;48.606;9.096;2023-07-08T07:33:33;7.73;;;3.90;;
479;SDS011;226;48.606;9.096;2023-07-08T07:36:03;12.20;;;4.40;;
479;SDS011;226;48.606;9.096;2023-07-08T07:38:32;6.60;;;3.50;;
479;SDS011;226;48.606;9.096;2023-07-08T07:41:02;9.43;;;3.97;;
479;SDS011;226;48.606;9.096;2023-07-08T07:43:32;7.37;;;3.53;;
479;SDS011;226;48.606;9.096;2023-07-08T07:46:01;7.10;;;3.90;;
479;SDS011;226;48.606;9.096;2023-07-08T07:48:31;8.10;;;4.07;;
479;SDS011;226;48.606;9.096;2023-07-08T07:50:59;6.60;;;3.37;;
479;SDS011;226;48.606;9.096;2023-07-08T07:53:28;13.00;;;4.30;;
479;SDS011;226;48.606;9.096;2023-07-08T07:55:56;7.10;;;3.43;;
479;SDS011;226;48.606;9.096;2023-07-08T07:58:27;7.97;;;4.00;;
479;SDS011;226;48.606;9.096;2023-07-08T08:00:55;7.43;;;3.90;;
479;SDS011;226;48.606;9.096;2023-07-08T08:03:24;6.33;;;3.83;;
479;SDS011;226;48.606;9.096;2023-07-08T08:05:52;8.67;;;4.27;;
479;SDS011;226;48.606;9.096;2023-07-08T08:08:20;7.00;;;3.57;;
479;SDS011;226;48.606;9.096;2023-07-08T08:10:49;9.70;;;4.30;;
479;SDS011;226;48.606;9.096;2023-07-08T08:13:17;8.47;;;3.90;;
479;SDS011;226;48.606;9.096;2023-07-08T08:15:46;7.50;;;3.90;;
479;SDS011;226;48.606;9.096;2023-07-08T08:18:14;7.50;;;4.13;;
479;SDS011;226;48.606;9.096;2023-07-08T08:20:42;7.07;;;3.93;;
479;SDS011;226;48.606;9.096;2023-07-08T08:23:11;11.20;;;3.80;;
479;SDS011;226;48.606;9.096;2023-07-08T08:25:39;5.93;;;4.57;;
479;SDS011;226;48.606;9.096;2023-07-08T08:28:07;9.03;;;4.00;;
479;SDS011;226;48.606;9.096;2023-07-08T08:30:35;10.67;;;4.73;;
479;SDS011;226;48.606;9.096;2023-07-08T08:33:04;6.60;;;4.20;;
479;SDS011;226;48.606;9.096;2023-07-08T08:35:33;5.27;;;3.30;;
479;SDS011;226;48.606;9.096;2023-07-08T08:38:01;7.70;;;3.70;;
479;SDS011;226;48.606;9.096;2023-07-08T08:40:30;7.57;;;4.43;;
479;SDS011;226;48.606;9.096;2023-07-08T08:43:00;7.20;;;3.90;;
479;SDS011;226;48.606;9.096;2023-07-08T08:48:19;5.53;;;3.17;;
479;SDS011;226;48.606;9.096;2023-07-08T08:50:50;8.17;;;3.50;;
479;SDS011;226;48.606;9.096;2023-07-08T08:53:20;8.33;;;4.10;;
479;SDS011;226;48.606;9.096;2023-07-08T08:55:51;6.37;;;3.20;;
479;SDS011;226;48.606;9.096;2023-07-08T08:58:26;5.77;;;2.80;;
479;SDS011;226;48.606;9.096;2023-07-08T09:01:01;5.67;;;3.10;;
479;SDS011;226;48.606;9.096;2023-07-08T09:03:36;4.47;;;2.90;;
479;SDS011;226;48.606;9.096;2023-07-08T09:06:13;5.00;;;2.30;;
479;SDS011;226;48.606;9.096;2023-07-08T09:08:44;5.30;;;2.90;;
479;SDS011;226;48.606;9.096;2023-07-08T09:11:17;6.33;;;3.13;;
479;SDS011;226;48.606;9.096;2023-07-08T09:13:50;5.47;;;2.90;;
479;SDS011;226;48.606;9.096;2023-07-08T09:16:20;2.53;;;2.03;;
479;SDS011;226;48.606;9.096;2023-07-08T09:19:00;4.80;;;2.83;;
479;SDS011;226;48.606;9.096;2023-07-08T09:21:35;6.40;;;2.53;;
479;SDS011;226;48.606;9.096;2023-07-08T09:24:09;7.47;;;3.80;;
479;SDS011;226;48.606;9.096;2023-07-08T09:26:43;6.73;;;2.77;;
479;SDS011;226;48.606;9.096;2023-07-08T09:29:13;5.60;;;2.40;;
479;SDS011;226;48.606;9.096;2023-07-08T09:31:41;5.33;;;2.77;;
479;SDS011;226;48.606;9.096;2023-07-08T09:34:12;5.30;;;2.33;;
479;SDS011;226;48.606;9.096;2023-07-08T09:36:42;5.27;;;2.40;;
479;SDS011;226;48.606;9.096;2023-07-08T09:39:12;4.83;;;2.43;;
479;SDS011;226;48.606;9.096;2023-07-08T09:41:42;3.60;;;2.20;;
479;SDS011;226;48.606;9.096;2023-07-08T09:44:14;2.50;;;1.87;;
479;SDS011;226;48.606;9.096;2023-07-08T09:46:45;5.77;;;2.67;;
479;SDS011;226;48.606;9.096;2023-07-08T09:49:20;4.57;;;2.33;;
479;SDS011;226;48.606;9.096;2023-07-08T09:51:50;3.77;;;2.40;;
479;SDS011;226;48.606;9.096;2023-07-08T09:54:19;3.60;;;2.40;;
479;SDS011;226;48.606;9.096;2023-07-08T09:56:52;4.23;;;2.40;;
479;SDS011;226;48.606;9.096;2023-07-08T09:59:27;8.30;;;3.23;;
479;SDS011;226;48.606;9.096;2023-07-08T10:01:59;2.97;;;2.33;;
479;SDS011;226;48.606;9.096;2023-07-08T10:04:30;3.80;;;2.10;;
479;SDS011;226;48.606;9.096;2023-07-08T10:06:59;5.80;;;2.30;;
479;SDS011;226;48.606;9.096;2023-07-08T10:09:27;6.13;;;2.90;;
479;SDS011;226;48.606;9.096;2023-07-08T10:11:57;2.17;;;1.87;;
479;SDS011;226;48.606;9.096;2023-07-08T10:14:29;3.63;;;1.87;;
479;SDS011;226;48.606;9.096;2023-07-08T10:17:02;4.83;;;2.00;;
479;SDS011;226;48.606;9.096;2023-07-08T10:19:32;3.27;;;2.43;;
479;SDS011;226;48.606;9.096;2023-07-08T10:22:13;3.00;;;2.00;;
479;SDS011;226;48.606;9.096;2023-07-08T10:24:56;5.37;;;3.00;;
479;SDS011;226;48.606;9.096;2023-07-08T10:27:35;4.33;;;2.20;;
479;SDS011;226;48.606;9.096;2023-07-08T10:30:16;4.73;;;2.57;;
479;SDS011;226;48.606;9.096;2023-07-08T10:35:52;5.20;;;2.50;;
479;SDS011;226;48.606;9.096;2023-07-08T10:38:33;4.63;;;2.70;;
479;SDS011;226;48.606;9.096;2023-07-08T10:41:12;3.17;;;2.10;;
479;SDS011;226;48.606;9.096;2023-07-08T10:43:51;3.00;;;2.50;;
479;SDS011;226;48.606;9.096;2023-07-08T10:46:36;2.70;;;2.33;;
479;SDS011;226;48.606;9.096;2023-07-08T10:49:20;3.40;;;2.43;;
479;SDS011;226;48.606;9.096;2023-07-08T10:52:10;4.27;;;2.57;;
479;SDS011;226;48.606;9.096;2023-07-08T10:54:59;5.60;;;2.10;;
479;SDS011;226;48.606;9.096;2023-07-08T10:57:51;3.20;;;2.30;;
479;SDS011;226;48.606;9.096;2023-07-08T11:00:30;3.27;;;1.90;;
479;SDS011;226;48.606;9.096;2023-07-08T11:06:01;1.63;;;1.53;;
479;SDS011;226;48.606;9.096;2023-07-08T11:08:37;6.77;;;2.20;;
479;SDS011;226;48.606;9.096;2023-07-08T11:11:12;4.23;;;2.50;;
479;SDS011;226;48.606;9.096;2023-07-08T11:13:50;3.93;;;1.90;;
479;SDS011;226;48.606;9.096;2023-07-08T11:16:24;1.80;;;1.70;;
479;SDS011;226;48.606;9.096;2023-07-08T11:19:04;2.93;;;2.27;;
479;SDS011;226;48.606;9.096;2023-07-08T11:21:35;3.73;;;2.57;;
479;SDS011;226;48.606;9.096;2023-07-08T11:24:14;3.97;;;3.30;;
479;SDS011;226;48.606;9.096;2023-07-08T11:26:49;4.10;;;2.43;;
479;SDS011;226;48.606;9.096;2023-07-08T11:29:25;4.00;;;2.33;;
479;SDS011;226;48.606;9.096;2023-07-08T11:31:58;7.60;;;2.67;;
479;SDS011;226;48.606;9.096;2023-07-08T11:34:27;2.13;;;1.90;;
479;SDS011;226;48.606;9.096;2023-07-08T11:36:56;3.90;;;2.50;;
479;SDS011;226;48.606;9.096;2023-07-08T11:39:28;2.10;;;1.80;;
479;SDS011;226;48.606;9.096;2023-07-08T11:42:04;4.23;;;2.10;;
479;SDS011;226;48.606;9.096;2023-07-08T11:44:43;3.70;;;2.60;;
479;SDS011;226;48.606;9.096;2023-07-08T11:47:18;6.10;;;2.80;;
479;SDS011;226;48.606;9.096;2023-07-08T11:49:51;3.17;;;2.20;;
479;SDS011;226;48.606;9.096;2023-07-08T11:52:22;4.33;;;2.30;;
479;SDS011;226;48.606;9.096;2023-07-08T11:54:56;3.23;;;2.93;;
479;SDS011;226;48.606;9.096;2023-07-08T11:57:30;2.60;;;1.67;;
479;SDS011;226;48.606;9.096;2023-07-08T12:00:15;2.10;;;1.90;;
479;SDS011;226;48.606;9.096;2023-07-08T12:02:49;8.30;;;2.30;;
479;SDS011;226;48.606;9.096;2023-07-08T12:05:28;3.20;;;2.07;;
479;SDS011;226;48.606;9.096;2023-07-08T12:07:58;4.03;;;2.07;;
479;SDS011;226;48.606;9.096;2023-07-08T12:10:31;2.40;;;2.20;;
479;SDS011;226;48.606;9.096;2023-07-08T12:13:02;2.47;;;1.73;;
479;SDS011;226;48.606;9.096;2023-07-08T12:15:31;2.00;;;1.60;;
479;SDS011;226;48.606;9.096;2023-07-08T12:18:01;4.33;;;2.70;;
479;SDS011;226;48.606;9.096;2023-07-08T12:20:33;5.93;;;2.00;;
479;SDS011;226;48.606;9.096;2023-07-08T12:23:04;1.73;;;1.30;;
479;SDS011;226;48.606;9.096;2023-07-08T12:25:39;2.83;;;1.70;;
479;SDS011;226;48.606;9.096;2023-07-08T12:28:08;2.50;;;1.83;;
479;SDS011;226;48.606;9.096;2023-07-08T12:30:38;1.53;;;1.40;;
479;SDS011;226;48.606;9.096;2023-07-08T12:33:09;2.57;;;1.63;;
479;SDS011;226;48.606;9.096;2023-07-08T12:35:41;3.47;;;1.97;;
479;SDS011;226;48.606;9.096;2023-07-08T12:38:13;4.97;;;1.83;;
479;SDS011;226;48.606;9.096;2023-07-08T12:40:48;2.80;;;1.50;;
479;SDS011;226;48.606;9.096;2023-07-08T12:43:17;2.60;;;2.00;;
479;SDS011;226;48.606;9.096;2023-07-08T12:45:46;2.53;;;1.70;;
479;SDS011;226;48.606;9.096;2023-07-08T12:48:14;3.13;;;1.63;;
479;SDS011;226;48.606;9.096;2023-07-08T12:50:42;1.97;;;1.80;;
479;SDS011;226;48.606;9.096;2023-07-08T12:53:10;9.80;;;1.90;;
479;SDS011;226;48.606;9.096;2023-07-08T12:55:39;1.50;;;1.40;;
479;SDS011;226;48.606;9.096;2023-07-08T12:58:12;1.93;;;1.77;;
479;SDS011;226;48.606;9.096;2023-07-08T13:00:45;2.53;;;1.70;;
479;SDS011;226;48.606;9.096;2023-07-08T13:03:15;1.53;;;1.43;;
479;SDS011;226;48.606;9.096;2023-07-08T13:05:44;2.90;;;1.50;;
479;SDS011;226;48.606;9.096;2023-07-08T13:08:13;7.93;;;2.27;;
479;SDS011;226;48.606;9.096;2023-07-08T13:10:43;3.37;;;1.70;;
479;SDS011;226;48.606;9.096;2023-07-08T13:13:17;1.23;;;1.03;;
479;SDS011;226;48.606;9.096;2023-07-08T13:15:48;2.40;;;1.43;;
479;SDS011;226;48.606;9.096;2023-07-08T13:18:18;1.60;;;1.50;;
479;SDS011;226;48.606;9.096;2023-07-08T13:20:48;6.03;;;2.10;;
479;SDS011;226;48.606;9.096;2023-07-08T13:23:19;1.33;;;1.20;;
479;SDS011;226;48.606;9.096;2023-07-08T13:25:49;1.40;;;1.30;;
479;SDS011;226;48.606;9.096;2023-07-08T13:28:23;1.00;;;1.00;;
479;SDS011;226;48.606;9.096;2023-07-08T13:30:53;2.83;;;1.30;;
479;SDS011;226;48.606;9.096;2023-07-08T13:33:23;1.57;;;1.20;;
479;SDS011;226;48.606;9.096;2023-07-08T13:35:51;1.43;;;1.33;;
479;SDS011;226;48.606;9.096;2023-07-08T13:38:23;2.00;;;1.57;;
479;SDS011;226;48.606;9.096;2023-07-08T13:40:53;1.33;;;1.23;;
479;SDS011;226;48.606;9.096;2023-07-08T13:43:24;1.57;;;1.27;;
479;SDS011;226;48.606;9.096;2023-07-08T13:45:53;1.17;;;1.17;;
479;SDS011;226;48.606;9.096;2023-07-08T13:48:23;3.17;;;1.53;;
479;SDS011;226;48.606;9.096;2023-07-08T13:50:55;1.53;;;1.30;;
479;SDS011;226;48.606;9.096;2023-07-08T13:53:25;2.87;;;1.10;;
479;SDS011;226;48.606;9.096;2023-07-08T13:55:58;1.27;;;1.17;;
479;SDS011;226;48.606;9.096;2023-07-08T13:58:29;2.27;;;1.50;;
479;SDS011;226;48.606;9.096;2023-07-08T14:00:58;1.43;;;1.03;;
479;SDS011;226;48.606;9.096;2023-07-08T14:03:27;1.40;;;1.30;;
479;SDS011;226;48.606;9.096;2023-07-08T14:05:55;2.07;;;1.27;;
479;SDS011;226;48.606;9.096;2023-07-08T14:08:23;1.27;;;1.07;;
479;SDS011;226;48.606;9.096;2023-07-08T14:10:53;1.70;;;1.30;;
479;SDS011;226;48.606;9.096;2023-07-08T14:13:21;1.53;;;1.43;;
479;SDS011;226;48.606;9.096;2023-07-08T14:15:50;3.17;;;1.47;;
479;SDS011;226;48.606;9.096;2023-07-08T14:18:18;1.43;;;1.30;;
479;SDS011;226;48.606;9.096;2023-07-08T14:20:48;2.93;;;2.20;;
479;SDS011;226;48.606;9.096;2023-07-08T14:23:17;1.77;;;1.30;;
479;SDS011;226;48.606;9.096;2023-07-08T14:25:46;2.97;;;1.87;;
479;SDS011;226;48.606;9.096;2023-07-08T14:28:17;1.37;;;1.20;;
479;SDS011;226;48.606;9.096;2023-07-08T14:30:48;1.40;;;1.30;;
479;SDS011;226;48.606;9.096;2023-07-08T14:33:18;4.53;;;1.80;;
479;SDS011;226;48.606;9.096;2023-07-08T14:35:46;3.57;;;1.20;;
479;SDS011;226;48.606;9.096;2023-07-08T14:38:14;2.00;;;1.70;;
479;SDS011;226;48.606;9.096;2023-07-08T14:40:43;1.53;;;1.10;;
479;SDS011;226;48.606;9.096;2023-07-08T14:43:13;2.17;;;1.60;;
479;SDS011;226;48.606;9.096;2023-07-08T14:45:42;1.97;;;1.87;;
479;SDS011;226;48.606;9.096;2023-07-08T14:48:12;3.97;;;2.40;;
479;SDS011;226;48.606;9.096;2023-07-08T14:50:42;6.63;;;1.30;;
479;SDS011;226;48.606;9.096;2023-07-08T14:53:12;3.07;;;1.70;;
479;SDS011;226;48.606;9.096;2023-07-08T14:55:40;1.10;;;1.10;;
479;SDS011;226;48.606;9.096;2023-07-08T14:58:10;2.97;;;1.63;;
479;SDS011;226;48.606;9.096;2023-07-08T15:00:44;2.33;;;1.93;;
479;SDS011;226;48.606;9.096;2023-07-08T15:03:12;1.13;;;1.03;;
479;SDS011;226;48.606;9.096;2023-07-08T15:05:42;1.60;;;1.50;;
479;SDS011;226;48.606;9.096;2023-07-08T15:08:11;1.57;;;1.47;;
479;SDS011;226;48.606;9.096;2023-07-08T15:10:39;2.47;;;1.60;;
479;SDS011;226;48.606;9.096;2023-07-08T15:13:09;0.90;;;0.90;;
479;SDS011;226;48.606;9.096;2023-07-08T15:15:38;1.43;;;1.10;;
479;SDS011;226;48.606;9.096;2023-07-08T15:18:10;1.23;;;1.13;;
479;SDS011;226;48.606;9.096;2023-07-08T15:20:39;1.58;;;1.15;;
479;SDS011;226;48.606;9.096;2023-07-08T15:23:10;1.90;;;0.95;;
479;SDS011;226;48.606;9.096;2023-07-08T15:25:39;1.92;;;1.75;;
479;SDS011;226;48.606;9.096;2023-07-08T15:28:11;0.80;;;0.80;;
479;SDS011;226;48.606;9.096;2023-07-08T15:30:42;2.47;;;1.23;;
479;SDS011;226;48.606;9.096;2023-07-08T15:33:12;2.97;;;1.60;;
479;SDS011;226;48.606;9.096;2023-07-08T15:35:42;2.47;;;1.42;;
479;SDS011;226;48.606;9.096;2023-07-08T15:38:12;2.95;;;1.40;;
479;SDS011;226;48.606;9.096;2023-07-08T15:40:41;1.05;;;1.05;;
479;SDS011;226;48.606;9.096;2023-07-08T15:43:11;1.45;;;1.35;;
479;SDS011;226;48.606;9.096;2023-07-08T15:45:40;3.60;;;1.30;;
479;SDS011;226;48.606;9.096;2023-07-08T15:48:12;1.67;;;1.30;;
479;SDS011;226;48.606;9.096;2023-07-08T15:50:42;1.10;;;1.00;;
479;SDS011;226;48.606;9.096;2023-07-08T15:53:13;2.50;;;1.20;;
479;SDS011;226;48.606;9.096;2023-07-08T15:55:42;1.08;;;1.08;;
479;SDS011;226;48.606;9.096;2023-07-08T15:58:14;2.92;;;1.65;;
479;SDS011;226;48.606;9.096;2023-07-08T16:00:47;1.77;;;1.67;;
479;SDS011;226;48.606;9.096;2023-07-08T16:03:17;5.38;;;1.75;;
479;SDS011;226;48.606;9.096;2023-07-08T16:05:48;4.68;;;1.42;;
479;SDS011;226;48.606;9.096;2023-07-08T16:08:18;1.77;;;1.67;;
479;SDS011;226;48.606;9.096;2023-07-08T16:10:52;1.15;;;1.08;;
479;SDS011;226;48.606;9.096;2023-07-08T16:13:22;2.95;;;1.27;;